sensor_id;sensor_type;location;lat;lon;timestamp;P1;durP1;ratioP1;P2;durP2;ratioP2
59308;SDS011;48433;53.016;-2.260;2023-06-14T00:02:02;10.55;;;4.90;;
59308;SDS011;48433;53.016;-2.260;2023-06-14T00:04:31;13.00;;;5.38;;
59308;SDS011;48433;53.016;-2.260;2023-06-14T00:06:58;10.85;;;5.70;;
59308;SDS011;48433;53.016;-2.260;2023-06-14T00:09:26;10.82;;;5.40;;
59308;SDS011;48433;53.016;-2.260;2023-06-14T00:11:54;13.05;;;5.57;;
59308;SDS011;48433;53.016;-2.260;2023-06-14T00:14:22;8.02;;;4.88;;
59308;SDS011;48433;53.016;-2.260;2023-06-14T00:16:51;12.20;;;4.88;;
59308;SDS011;48433;53.016;-2.260;2023-06-14T00:19:19;8.77;;;4.93;;
59308;SDS011;48433;53.016;-2.260;2023-06-14T00:21:48;9.13;;;4.85;;
59308;SDS011;48433;53.016;-2.260;2023-06-14T00:24:16;10.98;;;5.35;;
59308;SDS011;48433;53.016;-2.260;2023-06-14T00:26:44;12.93;;;5.28;;
59308;SDS011;48433;53.016;-2.260;2023-06-14T00:29:11;11.10;;;5.85;;
59308;SDS011;48433;53.016;-2.260;2023-06-14T00:31:39;9.70;;;5.25;;
59308;SDS011;48433;53.016;-2.260;2023-06-14T00:34:07;10.38;;;4.82;;
59308;SDS011;48433;53.016;-2.260;2023-06-14T00:36:36;11.02;;;5.43;;
59308;SDS011;48433;53.016;-2.260;2023-06-14T00:39:04;9.25;;;4.65;;
59308;SDS011;48433;53.016;-2.260;2023-06-14T00:41:32;16.00;;;5.75;;
59308;SDS011;48433;53.016;-2.260;2023-06-14T00:43:59;16.38;;;4.72;;
59308;SDS011;48433;53.016;-2.260;2023-06-14T00:46:27;8.52;;;3.88;;
59308;SDS011;48433;53.016;-2.260;2023-06-14T00:48:55;11.35;;;4.15;;
59308;SDS011;48433;53.016;-2.260;2023-06-14T00:51:25;9.63;;;3.90;;
59308;SDS011;48433;53.016;-2.260;2023-06-14T00:53:54;6.93;;;3.60;;
59308;SDS011;48433;53.016;-2.260;2023-06-14T00:56:22;8.10;;;3.65;;
59308;SDS011;48433;53.016;-2.260;2023-06-14T00:58:51;8.50;;;3.60;;
59308;SDS011;48433;53.016;-2.260;2023-06-14T01:01:19;7.28;;;3.08;;
59308;SDS011;48433;53.016;-2.260;2023-06-14T01:03:47;8.00;;;3.28;;
59308;SDS011;48433;53.016;-2.260;2023-06-14T01:06:21;8.82;;;3.17;;
59308;SDS011;48433;53.016;-2.260;2023-06-14T01:11:43;6.35;;;3.00;;
59308;SDS011;48433;53.016;-2.260;2023-06-14T01:14:16;9.35;;;3.28;;
59308;SDS011;48433;53.016;-2.260;2023-06-14T01:16:45;6.97;;;3.05;;
59308;SDS011;48433;53.016;-2.260;2023-06-14T01:19:14;7.25;;;3.83;;
59308;SDS011;48433;53.016;-2.260;2023-06-14T01:21:43;7.22;;;3.25;;
59308;SDS011;48433;53.016;-2.260;2023-06-14T01:24:10;8.35;;;3.53;;
59308;SDS011;48433;53.016;-2.260;2023-06-14T01:26:38;7.47;;;3.00;;
59308;SDS011;48433;53.016;-2.260;2023-06-14T01:29:13;8.85;;;3.95;;
59308;SDS011;48433;53.016;-2.260;2023-06-14T01:31:45;7.85;;;3.22;;
59308;SDS011;48433;53.016;-2.260;2023-06-14T01:34:13;6.80;;;3.08;;
59308;SDS011;48433;53.016;-2.260;2023-06-14T01:36:41;10.80;;;3.70;;
59308;SDS011;48433;53.016;-2.260;2023-06-14T01:39:14;10.32;;;3.75;;
59308;SDS011;48433;53.016;-2.260;2023-06-14T01:44:11;7.07;;;2.85;;
59308;SDS011;48433;53.016;-2.260;2023-06-14T01:46:41;6.90;;;3.25;;
59308;SDS011;48433;53.016;-2.260;2023-06-14T01:49:10;11.73;;;3.88;;
59308;SDS011;48433;53.016;-2.260;2023-06-14T01:51:38;10.20;;;3.42;;
59308;SDS011;48433;53.016;-2.260;2023-06-14T01:54:08;9.82;;;3.10;;
59308;SDS011;48433;53.016;-2.260;2023-06-14T01:56:37;8.85;;;3.55;;
59308;SDS011;48433;53.016;-2.260;2023-06-14T01:59:05;7.20;;;3.33;;
59308;SDS011;48433;53.016;-2.260;2023-06-14T02:01:33;6.28;;;3.17;;
59308;SDS011;48433;53.016;-2.260;2023-06-14T02:04:01;12.55;;;3.55;;
59308;SDS011;48433;53.016;-2.260;2023-06-14T02:06:29;6.85;;;3.40;;
59308;SDS011;48433;53.016;-2.260;2023-06-14T02:08:57;9.25;;;3.65;;
59308;SDS011;48433;53.016;-2.260;2023-06-14T02:11:27;7.18;;;3.53;;
59308;SDS011;48433;53.016;-2.260;2023-06-14T02:13:55;11.10;;;3.63;;
59308;SDS011;48433;53.016;-2.260;2023-06-14T02:16:23;10.98;;;3.63;;
59308;SDS011;48433;53.016;-2.260;2023-06-14T02:18:51;10.95;;;3.65;;
59308;SDS011;48433;53.016;-2.260;2023-06-14T02:21:19;11.10;;;3.70;;
59308;SDS011;48433;53.016;-2.260;2023-06-14T02:23:47;7.63;;;3.47;;
59308;SDS011;48433;53.016;-2.260;2023-06-14T02:26:15;9.27;;;3.83;;
59308;SDS011;48433;53.016;-2.260;2023-06-14T02:28:42;8.15;;;3.65;;
59308;SDS011;48433;53.016;-2.260;2023-06-14T02:31:10;11.55;;;3.92;;
59308;SDS011;48433;53.016;-2.260;2023-06-14T02:33:38;9.68;;;3.70;;
59308;SDS011;48433;53.016;-2.260;2023-06-14T02:36:06;8.07;;;3.72;;
59308;SDS011;48433;53.016;-2.260;2023-06-14T02:38:34;12.30;;;3.85;;
59308;SDS011;48433;53.016;-2.260;2023-06-14T02:41:02;7.97;;;3.75;;
59308;SDS011;48433;53.016;-2.260;2023-06-14T02:43:31;10.15;;;3.65;;
59308;SDS011;48433;53.016;-2.260;2023-06-14T02:45:58;10.95;;;3.95;;
59308;SDS011;48433;53.016;-2.260;2023-06-14T02:48:27;7.53;;;3.92;;
59308;SDS011;48433;53.016;-2.260;2023-06-14T02:50:55;7.30;;;3.63;;
59308;SDS011;48433;53.016;-2.260;2023-06-14T02:53:23;11.57;;;4.15;;
59308;SDS011;48433;53.016;-2.260;2023-06-14T02:55:51;9.45;;;4.30;;
59308;SDS011;48433;53.016;-2.260;2023-06-14T02:58:20;7.22;;;3.58;;
59308;SDS011;48433;53.016;-2.260;2023-06-14T03:00:47;11.48;;;3.30;;
59308;SDS011;48433;53.016;-2.260;2023-06-14T03:03:15;7.40;;;4.03;;
59308;SDS011;48433;53.016;-2.260;2023-06-14T03:05:50;10.05;;;4.00;;
59308;SDS011;48433;53.016;-2.260;2023-06-14T03:08:22;8.90;;;3.80;;
59308;SDS011;48433;53.016;-2.260;2023-06-14T03:10:55;8.65;;;3.55;;
59308;SDS011;48433;53.016;-2.260;2023-06-14T03:13:24;10.30;;;4.10;;
59308;SDS011;48433;53.016;-2.260;2023-06-14T03:15:53;10.75;;;3.92;;
59308;SDS011;48433;53.016;-2.260;2023-06-14T03:18:24;12.80;;;4.65;;
59308;SDS011;48433;53.016;-2.260;2023-06-14T03:23:26;8.15;;;3.47;;
59308;SDS011;48433;53.016;-2.260;2023-06-14T03:25:54;9.65;;;4.15;;
59308;SDS011;48433;53.016;-2.260;2023-06-14T03:28:23;12.35;;;3.47;;
59308;SDS011;48433;53.016;-2.260;2023-06-14T03:30:52;8.90;;;4.13;;
59308;SDS011;48433;53.016;-2.260;2023-06-14T03:33:21;9.93;;;4.03;;
59308;SDS011;48433;53.016;-2.260;2023-06-14T03:35:49;7.40;;;3.95;;
59308;SDS011;48433;53.016;-2.260;2023-06-14T03:38:18;8.95;;;4.05;;
59308;SDS011;48433;53.016;-2.260;2023-06-14T03:40:46;12.95;;;4.25;;
59308;SDS011;48433;53.016;-2.260;2023-06-14T03:43:13;9.48;;;4.00;;
59308;SDS011;48433;53.016;-2.260;2023-06-14T03:45:42;14.65;;;4.82;;
59308;SDS011;48433;53.016;-2.260;2023-06-14T03:48:10;9.35;;;4.35;;
59308;SDS011;48433;53.016;-2.260;2023-06-14T03:50:38;8.52;;;4.10;;
59308;SDS011;48433;53.016;-2.260;2023-06-14T03:53:07;8.77;;;4.45;;
59308;SDS011;48433;53.016;-2.260;2023-06-14T03:55:39;9.73;;;3.75;;
59308;SDS011;48433;53.016;-2.260;2023-06-14T03:58:27;11.15;;;4.22;;
59308;SDS011;48433;53.016;-2.260;2023-06-14T04:00:55;10.18;;;4.03;;
59308;SDS011;48433;53.016;-2.260;2023-06-14T04:03:24;12.60;;;4.88;;
59308;SDS011;48433;53.016;-2.260;2023-06-14T04:05:57;10.02;;;3.85;;
59308;SDS011;48433;53.016;-2.260;2023-06-14T04:08:27;14.98;;;4.63;;
59308;SDS011;48433;53.016;-2.260;2023-06-14T04:10:56;10.48;;;4.43;;
59308;SDS011;48433;53.016;-2.260;2023-06-14T04:13:24;9.65;;;4.43;;
59308;SDS011;48433;53.016;-2.260;2023-06-14T04:15:52;14.10;;;5.40;;
59308;SDS011;48433;53.016;-2.260;2023-06-14T04:18:25;11.77;;;5.18;;
59308;SDS011;48433;53.016;-2.260;2023-06-14T04:20:55;9.88;;;4.80;;
59308;SDS011;48433;53.016;-2.260;2023-06-14T04:23:23;13.38;;;5.53;;
59308;SDS011;48433;53.016;-2.260;2023-06-14T04:25:51;9.98;;;5.07;;
59308;SDS011;48433;53.016;-2.260;2023-06-14T04:28:19;12.05;;;5.40;;
59308;SDS011;48433;53.016;-2.260;2023-06-14T04:30:47;14.75;;;5.50;;
59308;SDS011;48433;53.016;-2.260;2023-06-14T04:33:17;14.68;;;5.15;;
59308;SDS011;48433;53.016;-2.260;2023-06-14T04:35:45;11.10;;;5.32;;
59308;SDS011;48433;53.016;-2.260;2023-06-14T04:38:19;12.48;;;6.32;;
59308;SDS011;48433;53.016;-2.260;2023-06-14T04:40:53;13.52;;;5.47;;
59308;SDS011;48433;53.016;-2.260;2023-06-14T04:43:22;10.68;;;5.00;;
59308;SDS011;48433;53.016;-2.260;2023-06-14T04:45:55;10.52;;;6.00;;
59308;SDS011;48433;53.016;-2.260;2023-06-14T04:48:24;11.98;;;5.40;;
59308;SDS011;48433;53.016;-2.260;2023-06-14T04:50:53;10.07;;;4.10;;
59308;SDS011;48433;53.016;-2.260;2023-06-14T04:53:21;9.35;;;4.75;;
59308;SDS011;48433;53.016;-2.260;2023-06-14T04:58:21;12.75;;;4.47;;
59308;SDS011;48433;53.016;-2.260;2023-06-14T05:00:48;8.57;;;4.63;;
59308;SDS011;48433;53.016;-2.260;2023-06-14T05:03:16;9.13;;;4.93;;
59308;SDS011;48433;53.016;-2.260;2023-06-14T05:05:46;9.10;;;4.65;;
59308;SDS011;48433;53.016;-2.260;2023-06-14T05:08:13;11.63;;;4.18;;
59308;SDS011;48433;53.016;-2.260;2023-06-14T05:10:42;9.52;;;4.78;;
59308;SDS011;48433;53.016;-2.260;2023-06-14T05:13:10;10.60;;;4.95;;
59308;SDS011;48433;53.016;-2.260;2023-06-14T05:15:38;9.90;;;4.70;;
59308;SDS011;48433;53.016;-2.260;2023-06-14T05:18:06;11.60;;;4.63;;
59308;SDS011;48433;53.016;-2.260;2023-06-14T05:20:36;13.45;;;5.10;;
59308;SDS011;48433;53.016;-2.260;2023-06-14T05:23:04;14.18;;;5.70;;
59308;SDS011;48433;53.016;-2.260;2023-06-14T05:25:32;9.52;;;4.97;;
59308;SDS011;48433;53.016;-2.260;2023-06-14T05:28:00;8.75;;;5.03;;
59308;SDS011;48433;53.016;-2.260;2023-06-14T05:30:28;9.82;;;5.07;;
59308;SDS011;48433;53.016;-2.260;2023-06-14T05:32:57;7.82;;;4.47;;
59308;SDS011;48433;53.016;-2.260;2023-06-14T05:35:25;11.68;;;4.95;;
59308;SDS011;48433;53.016;-2.260;2023-06-14T05:37:53;13.32;;;5.13;;
59308;SDS011;48433;53.016;-2.260;2023-06-14T05:40:21;12.77;;;6.00;;
59308;SDS011;48433;53.016;-2.260;2023-06-14T05:42:49;14.07;;;5.00;;
59308;SDS011;48433;53.016;-2.260;2023-06-14T05:45:17;13.95;;;5.15;;
59308;SDS011;48433;53.016;-2.260;2023-06-14T05:47:45;10.52;;;5.05;;
59308;SDS011;48433;53.016;-2.260;2023-06-14T05:50:13;10.23;;;3.72;;
59308;SDS011;48433;53.016;-2.260;2023-06-14T05:52:40;11.88;;;4.63;;
59308;SDS011;48433;53.016;-2.260;2023-06-14T05:55:08;10.50;;;4.90;;
59308;SDS011;48433;53.016;-2.260;2023-06-14T05:57:40;11.45;;;4.43;;
59308;SDS011;48433;53.016;-2.260;2023-06-14T06:00:08;12.07;;;4.18;;
59308;SDS011;48433;53.016;-2.260;2023-06-14T06:02:38;9.32;;;4.18;;
59308;SDS011;48433;53.016;-2.260;2023-06-14T06:05:06;10.00;;;4.10;;
59308;SDS011;48433;53.016;-2.260;2023-06-14T06:07:36;10.07;;;4.20;;
59308;SDS011;48433;53.016;-2.260;2023-06-14T06:10:04;11.90;;;3.17;;
59308;SDS011;48433;53.016;-2.260;2023-06-14T06:12:32;11.90;;;4.25;;
59308;SDS011;48433;53.016;-2.260;2023-06-14T06:15:00;10.55;;;4.05;;
59308;SDS011;48433;53.016;-2.260;2023-06-14T06:17:28;10.93;;;4.05;;
59308;SDS011;48433;53.016;-2.260;2023-06-14T06:20:12;9.88;;;3.95;;
59308;SDS011;48433;53.016;-2.260;2023-06-14T06:22:40;12.27;;;4.20;;
59308;SDS011;48433;53.016;-2.260;2023-06-14T06:25:08;7.75;;;3.63;;
59308;SDS011;48433;53.016;-2.260;2023-06-14T06:27:35;13.30;;;3.95;;
59308;SDS011;48433;53.016;-2.260;2023-06-14T06:30:05;11.55;;;3.88;;
59308;SDS011;48433;53.016;-2.260;2023-06-14T06:32:33;11.13;;;4.32;;
59308;SDS011;48433;53.016;-2.260;2023-06-14T06:35:01;10.77;;;4.65;;
59308;SDS011;48433;53.016;-2.260;2023-06-14T06:37:28;12.07;;;4.03;;
59308;SDS011;48433;53.016;-2.260;2023-06-14T06:39:56;12.90;;;3.00;;
59308;SDS011;48433;53.016;-2.260;2023-06-14T06:42:24;11.38;;;3.83;;
59308;SDS011;48433;53.016;-2.260;2023-06-14T06:44:52;12.68;;;3.38;;
59308;SDS011;48433;53.016;-2.260;2023-06-14T06:47:20;8.20;;;3.60;;
59308;SDS011;48433;53.016;-2.260;2023-06-14T06:49:48;8.15;;;3.65;;
59308;SDS011;48433;53.016;-2.260;2023-06-14T06:52:16;13.25;;;3.47;;
59308;SDS011;48433;53.016;-2.260;2023-06-14T06:54:44;9.20;;;3.50;;
59308;SDS011;48433;53.016;-2.260;2023-06-14T06:57:12;10.15;;;3.78;;
59308;SDS011;48433;53.016;-2.260;2023-06-14T06:59:40;11.15;;;3.00;;
59308;SDS011;48433;53.016;-2.260;2023-06-14T07:02:10;7.82;;;3.70;;
59308;SDS011;48433;53.016;-2.260;2023-06-14T07:04:38;8.63;;;3.50;;
59308;SDS011;48433;53.016;-2.260;2023-06-14T07:07:06;14.73;;;3.88;;
59308;SDS011;48433;53.016;-2.260;2023-06-14T07:09:36;8.05;;;3.97;;
59308;SDS011;48433;53.016;-2.260;2023-06-14T07:12:04;13.65;;;3.58;;
59308;SDS011;48433;53.016;-2.260;2023-06-14T07:14:32;8.82;;;3.70;;
59308;SDS011;48433;53.016;-2.260;2023-06-14T07:17:00;8.93;;;3.45;;
59308;SDS011;48433;53.016;-2.260;2023-06-14T07:19:27;7.95;;;3.65;;
59308;SDS011;48433;53.016;-2.260;2023-06-14T07:21:55;9.38;;;3.58;;
59308;SDS011;48433;53.016;-2.260;2023-06-14T07:24:23;10.63;;;3.70;;
59308;SDS011;48433;53.016;-2.260;2023-06-14T07:26:51;8.38;;;3.15;;
59308;SDS011;48433;53.016;-2.260;2023-06-14T07:29:19;8.82;;;3.53;;
59308;SDS011;48433;53.016;-2.260;2023-06-14T07:31:48;11.40;;;3.88;;
59308;SDS011;48433;53.016;-2.260;2023-06-14T07:34:15;20.92;;;4.22;;
59308;SDS011;48433;53.016;-2.260;2023-06-14T07:36:43;14.90;;;4.00;;
59308;SDS011;48433;53.016;-2.260;2023-06-14T07:39:12;13.73;;;4.07;;
59308;SDS011;48433;53.016;-2.260;2023-06-14T07:41:39;9.50;;;3.70;;
59308;SDS011;48433;53.016;-2.260;2023-06-14T07:44:07;11.18;;;3.55;;
59308;SDS011;48433;53.016;-2.260;2023-06-14T07:46:35;9.23;;;3.78;;
59308;SDS011;48433;53.016;-2.260;2023-06-14T07:49:03;8.10;;;3.17;;
59308;SDS011;48433;53.016;-2.260;2023-06-14T07:51:30;9.75;;;3.35;;
59308;SDS011;48433;53.016;-2.260;2023-06-14T07:53:59;9.52;;;3.08;;
59308;SDS011;48433;53.016;-2.260;2023-06-14T07:56:30;12.40;;;3.83;;
59308;SDS011;48433;53.016;-2.260;2023-06-14T07:58:58;7.47;;;3.15;;
59308;SDS011;48433;53.016;-2.260;2023-06-14T08:01:25;11.57;;;3.55;;
59308;SDS011;48433;53.016;-2.260;2023-06-14T08:03:54;8.27;;;3.50;;
59308;SDS011;48433;53.016;-2.260;2023-06-14T08:06:22;9.13;;;3.20;;
59308;SDS011;48433;53.016;-2.260;2023-06-14T08:08:50;9.88;;;3.90;;
59308;SDS011;48433;53.016;-2.260;2023-06-14T08:11:18;15.65;;;3.65;;
59308;SDS011;48433;53.016;-2.260;2023-06-14T08:13:46;15.15;;;3.80;;
59308;SDS011;48433;53.016;-2.260;2023-06-14T08:16:13;6.80;;;3.60;;
59308;SDS011;48433;53.016;-2.260;2023-06-14T08:18:41;13.27;;;3.47;;
59308;SDS011;48433;53.016;-2.260;2023-06-14T08:21:09;21.08;;;4.35;;
59308;SDS011;48433;53.016;-2.260;2023-06-14T08:23:37;9.45;;;3.55;;
59308;SDS011;48433;53.016;-2.260;2023-06-14T08:26:04;12.30;;;3.50;;
59308;SDS011;48433;53.016;-2.260;2023-06-14T08:28:32;11.30;;;3.40;;
59308;SDS011;48433;53.016;-2.260;2023-06-14T08:31:00;12.23;;;3.60;;
59308;SDS011;48433;53.016;-2.260;2023-06-14T08:33:28;11.82;;;3.85;;
59308;SDS011;48433;53.016;-2.260;2023-06-14T08:35:56;9.20;;;2.85;;
59308;SDS011;48433;53.016;-2.260;2023-06-14T08:38:24;8.65;;;3.28;;
59308;SDS011;48433;53.016;-2.260;2023-06-14T08:40:52;12.00;;;4.00;;
59308;SDS011;48433;53.016;-2.260;2023-06-14T08:43:25;8.38;;;3.28;;
59308;SDS011;48433;53.016;-2.260;2023-06-14T08:46:03;14.18;;;4.88;;
59308;SDS011;48433;53.016;-2.260;2023-06-14T08:48:31;15.40;;;3.90;;
59308;SDS011;48433;53.016;-2.260;2023-06-14T08:51:00;9.13;;;3.20;;
59308;SDS011;48433;53.016;-2.260;2023-06-14T08:53:30;6.65;;;2.97;;
59308;SDS011;48433;53.016;-2.260;2023-06-14T08:56:04;10.88;;;3.50;;
59308;SDS011;48433;53.016;-2.260;2023-06-14T08:58:34;8.55;;;3.38;;
59308;SDS011;48433;53.016;-2.260;2023-06-14T09:01:03;16.75;;;3.63;;
59308;SDS011;48433;53.016;-2.260;2023-06-14T09:03:32;11.38;;;3.92;;
59308;SDS011;48433;53.016;-2.260;2023-06-14T09:06:00;12.27;;;3.63;;
59308;SDS011;48433;53.016;-2.260;2023-06-14T09:08:28;14.27;;;4.15;;
59308;SDS011;48433;53.016;-2.260;2023-06-14T09:10:57;10.63;;;4.55;;
59308;SDS011;48433;53.016;-2.260;2023-06-14T09:13:26;11.05;;;3.88;;
59308;SDS011;48433;53.016;-2.260;2023-06-14T09:15:59;10.02;;;4.13;;
59308;SDS011;48433;53.016;-2.260;2023-06-14T09:18:34;9.98;;;3.75;;
59308;SDS011;48433;53.016;-2.260;2023-06-14T09:21:06;12.02;;;4.07;;
59308;SDS011;48433;53.016;-2.260;2023-06-14T09:23:38;10.27;;;3.28;;
59308;SDS011;48433;53.016;-2.260;2023-06-14T09:26:08;11.30;;;3.70;;
59308;SDS011;48433;53.016;-2.260;2023-06-14T09:28:45;12.80;;;4.57;;
59308;SDS011;48433;53.016;-2.260;2023-06-14T09:31:15;9.35;;;4.20;;
59308;SDS011;48433;53.016;-2.260;2023-06-14T09:33:45;11.50;;;4.73;;
59308;SDS011;48433;53.016;-2.260;2023-06-14T09:36:22;10.35;;;3.90;;
59308;SDS011;48433;53.016;-2.260;2023-06-14T09:38:59;10.73;;;3.88;;
59308;SDS011;48433;53.016;-2.260;2023-06-14T09:41:38;11.98;;;3.72;;
59308;SDS011;48433;53.016;-2.260;2023-06-14T09:44:08;10.57;;;4.10;;
59308;SDS011;48433;53.016;-2.260;2023-06-14T09:46:47;12.13;;;4.15;;
59308;SDS011;48433;53.016;-2.260;2023-06-14T09:51:46;10.90;;;3.70;;
59308;SDS011;48433;53.016;-2.260;2023-06-14T09:54:20;13.93;;;4.00;;
59308;SDS011;48433;53.016;-2.260;2023-06-14T09:56:50;9.30;;;3.85;;
59308;SDS011;48433;53.016;-2.260;2023-06-14T09:59:19;9.43;;;4.50;;
59308;SDS011;48433;53.016;-2.260;2023-06-14T10:02:18;13.60;;;4.10;;
59308;SDS011;48433;53.016;-2.260;2023-06-14T10:04:57;11.93;;;3.92;;
59308;SDS011;48433;53.016;-2.260;2023-06-14T10:07:43;12.77;;;4.32;;
59308;SDS011;48433;53.016;-2.260;2023-06-14T10:10:19;11.63;;;3.85;;
59308;SDS011;48433;53.016;-2.260;2023-06-14T10:12:49;26.50;;;5.28;;
59308;SDS011;48433;53.016;-2.260;2023-06-14T10:15:22;10.70;;;3.78;;
59308;SDS011;48433;53.016;-2.260;2023-06-14T10:18:18;8.38;;;3.92;;
59308;SDS011;48433;53.016;-2.260;2023-06-14T10:23:31;10.82;;;3.90;;
59308;SDS011;48433;53.016;-2.260;2023-06-14T10:26:02;12.10;;;4.35;;
59308;SDS011;48433;53.016;-2.260;2023-06-14T10:28:30;12.15;;;4.68;;
59308;SDS011;48433;53.016;-2.260;2023-06-14T10:31:11;10.38;;;3.72;;
59308;SDS011;48433;53.016;-2.260;2023-06-14T10:33:50;9.80;;;3.65;;
59308;SDS011;48433;53.016;-2.260;2023-06-14T10:36:30;8.30;;;3.97;;
59308;SDS011;48433;53.016;-2.260;2023-06-14T10:39:08;10.15;;;3.88;;
59308;SDS011;48433;53.016;-2.260;2023-06-14T10:41:41;10.40;;;3.80;;
59308;SDS011;48433;53.016;-2.260;2023-06-14T10:46:48;9.68;;;3.92;;
59308;SDS011;48433;53.016;-2.260;2023-06-14T10:49:16;12.90;;;3.90;;
59308;SDS011;48433;53.016;-2.260;2023-06-14T10:51:51;8.15;;;4.25;;
59308;SDS011;48433;53.016;-2.260;2023-06-14T10:54:20;10.73;;;4.63;;
59308;SDS011;48433;53.016;-2.260;2023-06-14T10:56:52;9.70;;;4.30;;
59308;SDS011;48433;53.016;-2.260;2023-06-14T10:59:20;10.93;;;4.28;;
59308;SDS011;48433;53.016;-2.260;2023-06-14T11:04:47;13.52;;;4.63;;
59308;SDS011;48433;53.016;-2.260;2023-06-14T11:07:30;13.50;;;4.47;;
59308;SDS011;48433;53.016;-2.260;2023-06-14T11:13:07;13.05;;;4.97;;
59308;SDS011;48433;53.016;-2.260;2023-06-14T11:15:36;9.55;;;4.45;;
59308;SDS011;48433;53.016;-2.260;2023-06-14T11:18:05;11.85;;;4.07;;
59308;SDS011;48433;53.016;-2.260;2023-06-14T11:20:35;11.02;;;4.05;;
59308;SDS011;48433;53.016;-2.260;2023-06-14T11:23:03;13.70;;;4.38;;
59308;SDS011;48433;53.016;-2.260;2023-06-14T11:25:32;11.30;;;4.47;;
59308;SDS011;48433;53.016;-2.260;2023-06-14T11:27:59;11.80;;;3.88;;
59308;SDS011;48433;53.016;-2.260;2023-06-14T11:30:27;12.43;;;4.82;;
59308;SDS011;48433;53.016;-2.260;2023-06-14T11:32:55;8.57;;;4.30;;
59308;SDS011;48433;53.016;-2.260;2023-06-14T11:35:25;9.00;;;4.10;;
59308;SDS011;48433;53.016;-2.260;2023-06-14T11:37:53;9.88;;;4.00;;
59308;SDS011;48433;53.016;-2.260;2023-06-14T11:40:25;10.48;;;4.05;;
59308;SDS011;48433;53.016;-2.260;2023-06-14T11:42:58;8.10;;;4.00;;
59308;SDS011;48433;53.016;-2.260;2023-06-14T11:45:27;10.75;;;4.50;;
59308;SDS011;48433;53.016;-2.260;2023-06-14T11:47:58;9.13;;;4.20;;
59308;SDS011;48433;53.016;-2.260;2023-06-14T11:50:27;11.25;;;4.68;;
59308;SDS011;48433;53.016;-2.260;2023-06-14T11:52:55;10.57;;;4.78;;
59308;SDS011;48433;53.016;-2.260;2023-06-14T11:55:24;10.00;;;4.00;;
59308;SDS011;48433;53.016;-2.260;2023-06-14T11:57:55;12.15;;;4.40;;
59308;SDS011;48433;53.016;-2.260;2023-06-14T12:00:26;10.93;;;4.28;;
59308;SDS011;48433;53.016;-2.260;2023-06-14T12:02:55;7.85;;;3.67;;
59308;SDS011;48433;53.016;-2.260;2023-06-14T12:05:24;10.02;;;4.10;;
59308;SDS011;48433;53.016;-2.260;2023-06-14T12:07:59;12.60;;;4.72;;
59308;SDS011;48433;53.016;-2.260;2023-06-14T12:10:29;9.00;;;3.95;;
59308;SDS011;48433;53.016;-2.260;2023-06-14T12:13:06;11.75;;;4.15;;
59308;SDS011;48433;53.016;-2.260;2023-06-14T12:15:33;11.98;;;4.55;;
59308;SDS011;48433;53.016;-2.260;2023-06-14T12:18:04;8.27;;;3.88;;
59308;SDS011;48433;53.016;-2.260;2023-06-14T12:20:34;16.02;;;4.78;;
59308;SDS011;48433;53.016;-2.260;2023-06-14T12:23:03;15.10;;;5.05;;
59308;SDS011;48433;53.016;-2.260;2023-06-14T12:25:35;8.65;;;4.07;;
59308;SDS011;48433;53.016;-2.260;2023-06-14T12:28:07;10.18;;;4.05;;
59308;SDS011;48433;53.016;-2.260;2023-06-14T12:30:36;10.50;;;4.63;;
59308;SDS011;48433;53.016;-2.260;2023-06-14T12:33:05;10.05;;;4.00;;
59308;SDS011;48433;53.016;-2.260;2023-06-14T12:35:33;9.63;;;4.20;;
59308;SDS011;48433;53.016;-2.260;2023-06-14T12:38:01;10.18;;;4.63;;
59308;SDS011;48433;53.016;-2.260;2023-06-14T12:40:30;8.63;;;4.00;;
59308;SDS011;48433;53.016;-2.260;2023-06-14T12:42:59;8.77;;;4.25;;
59308;SDS011;48433;53.016;-2.260;2023-06-14T12:45:26;9.10;;;4.05;;
59308;SDS011;48433;53.016;-2.260;2023-06-14T12:47:54;9.38;;;4.60;;
59308;SDS011;48433;53.016;-2.260;2023-06-14T12:50:22;12.10;;;4.82;;
59308;SDS011;48433;53.016;-2.260;2023-06-14T12:52:52;8.88;;;4.28;;
59308;SDS011;48433;53.016;-2.260;2023-06-14T12:55:20;9.95;;;4.40;;
59308;SDS011;48433;53.016;-2.260;2023-06-14T12:57:48;9.05;;;4.40;;
59308;SDS011;48433;53.016;-2.260;2023-06-14T13:00:16;9.75;;;4.57;;
59308;SDS011;48433;53.016;-2.260;2023-06-14T13:02:45;8.77;;;4.10;;
59308;SDS011;48433;53.016;-2.260;2023-06-14T13:05:13;8.20;;;3.92;;
59308;SDS011;48433;53.016;-2.260;2023-06-14T13:07:41;11.98;;;4.20;;
59308;SDS011;48433;53.016;-2.260;2023-06-14T13:10:08;11.43;;;4.47;;
59308;SDS011;48433;53.016;-2.260;2023-06-14T13:12:36;8.48;;;4.13;;
59308;SDS011;48433;53.016;-2.260;2023-06-14T13:15:04;10.63;;;4.63;;
59308;SDS011;48433;53.016;-2.260;2023-06-14T13:17:32;11.45;;;4.35;;
59308;SDS011;48433;53.016;-2.260;2023-06-14T13:20:00;12.88;;;4.75;;
59308;SDS011;48433;53.016;-2.260;2023-06-14T13:22:28;13.35;;;4.97;;
59308;SDS011;48433;53.016;-2.260;2023-06-14T13:24:55;9.52;;;4.05;;
59308;SDS011;48433;53.016;-2.260;2023-06-14T13:27:23;11.52;;;5.30;;
59308;SDS011;48433;53.016;-2.260;2023-06-14T13:29:51;10.68;;;4.78;;
59308;SDS011;48433;53.016;-2.260;2023-06-14T13:32:20;10.20;;;4.40;;
59308;SDS011;48433;53.016;-2.260;2023-06-14T13:34:49;10.55;;;4.95;;
59308;SDS011;48433;53.016;-2.260;2023-06-14T13:37:17;6.78;;;3.85;;
59308;SDS011;48433;53.016;-2.260;2023-06-14T13:39:44;14.23;;;4.85;;
59308;SDS011;48433;53.016;-2.260;2023-06-14T13:42:12;11.02;;;4.03;;
59308;SDS011;48433;53.016;-2.260;2023-06-14T13:44:40;8.38;;;4.55;;
59308;SDS011;48433;53.016;-2.260;2023-06-14T13:47:07;8.02;;;4.30;;
59308;SDS011;48433;53.016;-2.260;2023-06-14T13:49:35;8.75;;;4.57;;
59308;SDS011;48433;53.016;-2.260;2023-06-14T13:52:03;10.43;;;4.70;;
59308;SDS011;48433;53.016;-2.260;2023-06-14T13:54:31;10.15;;;4.53;;
59308;SDS011;48433;53.016;-2.260;2023-06-14T13:56:59;8.43;;;4.20;;
59308;SDS011;48433;53.016;-2.260;2023-06-14T13:59:27;8.38;;;4.07;;
59308;SDS011;48433;53.016;-2.260;2023-06-14T14:01:54;9.65;;;4.07;;
59308;SDS011;48433;53.016;-2.260;2023-06-14T14:04:22;12.52;;;4.40;;
59308;SDS011;48433;53.016;-2.260;2023-06-14T14:06:49;9.60;;;4.40;;
59308;SDS011;48433;53.016;-2.260;2023-06-14T14:09:17;10.45;;;4.40;;
59308;SDS011;48433;53.016;-2.260;2023-06-14T14:11:45;8.45;;;4.70;;
59308;SDS011;48433;53.016;-2.260;2023-06-14T14:14:12;10.15;;;4.50;;
59308;SDS011;48433;53.016;-2.260;2023-06-14T14:16:40;10.73;;;3.90;;
59308;SDS011;48433;53.016;-2.260;2023-06-14T14:19:07;8.55;;;4.35;;
59308;SDS011;48433;53.016;-2.260;2023-06-14T14:21:35;8.88;;;3.88;;
59308;SDS011;48433;53.016;-2.260;2023-06-14T14:24:03;10.48;;;4.35;;
59308;SDS011;48433;53.016;-2.260;2023-06-14T14:26:31;11.18;;;4.65;;
59308;SDS011;48433;53.016;-2.260;2023-06-14T14:28:59;9.63;;;4.60;;
59308;SDS011;48433;53.016;-2.260;2023-06-14T14:31:26;12.18;;;4.72;;
59308;SDS011;48433;53.016;-2.260;2023-06-14T14:33:54;9.48;;;4.22;;
59308;SDS011;48433;53.016;-2.260;2023-06-14T14:36:21;13.07;;;4.75;;
59308;SDS011;48433;53.016;-2.260;2023-06-14T14:38:49;8.15;;;4.05;;
59308;SDS011;48433;53.016;-2.260;2023-06-14T14:41:18;8.68;;;3.67;;
59308;SDS011;48433;53.016;-2.260;2023-06-14T14:43:46;11.68;;;4.35;;
59308;SDS011;48433;53.016;-2.260;2023-06-14T14:46:14;7.25;;;3.95;;
59308;SDS011;48433;53.016;-2.260;2023-06-14T14:48:43;10.82;;;4.15;;
59308;SDS011;48433;53.016;-2.260;2023-06-14T14:51:11;10.88;;;4.30;;
59308;SDS011;48433;53.016;-2.260;2023-06-14T14:53:38;11.73;;;4.13;;
59308;SDS011;48433;53.016;-2.260;2023-06-14T14:56:06;9.13;;;4.25;;
59308;SDS011;48433;53.016;-2.260;2023-06-14T14:58:34;9.02;;;4.00;;
59308;SDS011;48433;53.016;-2.260;2023-06-14T15:01:01;9.65;;;4.05;;
59308;SDS011;48433;53.016;-2.260;2023-06-14T15:03:29;8.63;;;4.07;;
59308;SDS011;48433;53.016;-2.260;2023-06-14T15:06:01;8.82;;;4.10;;